sensor_id;sensor_type;location;lat;lon;timestamp;pressure;altitude;pressure_sealevel;temperature;humidity
67840;BME280;54636;51.684;5.142;2023-02-18T00:00:08;102266.34;;;10.18;100.00
67840;BME280;54636;51.684;5.142;2023-02-18T00:02:35;102310.09;;;10.42;100.00
67840;BME280;54636;51.684;5.142;2023-02-18T00:05:01;102282.53;;;10.22;100.00
67840;BME280;54636;51.684;5.142;2023-02-18T00:07:26;102296.53;;;10.42;100.00
67840;BME280;54636;51.684;5.142;2023-02-18T00:09:51;102297.28;;;10.43;100.00
67840;BME280;54636;51.684;5.142;2023-02-18T00:12:17;102286.88;;;10.41;100.00
67840;BME280;54636;51.684;5.142;2023-02-18T00:14:42;102284.56;;;10.31;100.00
67840;BME280;54636;51.684;5.142;2023-02-18T00:17:07;102295.78;;;10.42;100.00
67840;BME280;54636;51.684;5.142;2023-02-18T00:19:33;102292.28;;;10.41;100.00
67840;BME280;54636;51.684;5.142;2023-02-18T00:21:58;102295.97;;;10.47;100.00
67840;BME280;54636;51.684;5.142;2023-02-18T00:24:23;102257.97;;;10.26;100.00
67840;BME280;54636;51.684;5.142;2023-02-18T00:26:50;102286.28;;;10.46;100.00
67840;BME280;54636;51.684;5.142;2023-02-18T00:29:16;102282.06;;;10.45;100.00
67840;BME280;54636;51.684;5.142;2023-02-18T00:31:42;102273.44;;;10.38;100.00
67840;BME280;54636;51.684;5.142;2023-02-18T00:34:09;102271.81;;;10.49;100.00
67840;BME280;54636;51.684;5.142;2023-02-18T00:36:35;102250.94;;;10.37;100.00
67840;BME280;54636;51.684;5.142;2023-02-18T00:39:02;102265.94;;;10.51;100.00
67840;BME280;54636;51.684;5.142;2023-02-18T00:41:28;102247.03;;;10.38;100.00
67840;BME280;54636;51.684;5.142;2023-02-18T00:43:54;102235.41;;;10.38;100.00
67840;BME280;54636;51.684;5.142;2023-02-18T00:46:20;102236.63;;;10.46;100.00
67840;BME280;54636;51.684;5.142;2023-02-18T00:48:46;102238.66;;;10.54;100.00
67840;BME280;54636;51.684;5.142;2023-02-18T00:51:12;102253.94;;;10.61;100.00
67840;BME280;54636;51.684;5.142;2023-02-18T00:53:38;102248.31;;;10.55;100.00
67840;BME280;54636;51.684;5.142;2023-02-18T00:56:05;102250.72;;;10.53;100.00
67840;BME280;54636;51.684;5.142;2023-02-18T00:58:30;102246.50;;;10.52;100.00
67840;BME280;54636;51.684;5.142;2023-02-18T01:00:56;102242.88;;;10.55;100.00
67840;BME280;54636;51.684;5.142;2023-02-18T01:03:21;102221.72;;;10.50;100.00
67840;BME280;54636;51.684;5.142;2023-02-18T01:05:48;102229.59;;;10.57;100.00
67840;BME280;54636;51.684;5.142;2023-02-18T01:08:15;102225.50;;;10.53;100.00
67840;BME280;54636;51.684;5.142;2023-02-18T01:10:43;102220.84;;;10.53;100.00
67840;BME280;54636;51.684;5.142;2023-02-18T01:13:12;102220.88;;;10.63;100.00
67840;BME280;54636;51.684;5.142;2023-02-18T01:15:40;102222.41;;;10.64;100.00
67840;BME280;54636;51.684;5.142;2023-02-18T01:18:05;102222.84;;;10.62;100.00
67840;BME280;54636;51.684;5.142;2023-02-18T01:20:32;102213.88;;;10.52;100.00
67840;BME280;54636;51.684;5.142;2023-02-18T01:22:58;102223.41;;;10.57;100.00
67840;BME280;54636;51.684;5.142;2023-02-18T01:25:23;102225.88;;;10.64;100.00
67840;BME280;54636;51.684;5.142;2023-02-18T01:27:48;102231.78;;;10.72;100.00
67840;BME280;54636;51.684;5.142;2023-02-18T01:30:16;102214.81;;;10.59;100.00
67840;BME280;54636;51.684;5.142;2023-02-18T01:32:41;102223.16;;;10.64;100.00
67840;BME280;54636;51.684;5.142;2023-02-18T01:35:10;102232.50;;;10.63;100.00
67840;BME280;54636;51.684;5.142;2023-02-18T01:37:36;102222.22;;;10.58;100.00
67840;BME280;54636;51.684;5.142;2023-02-18T01:40:02;102227.22;;;10.60;100.00
67840;BME280;54636;51.684;5.142;2023-02-18T01:42:28;102219.63;;;10.54;100.00
67840;BME280;54636;51.684;5.142;2023-02-18T01:47:59;102224.66;;;10.65;100.00
67840;BME280;54636;51.684;5.142;2023-02-18T01:50:26;102207.06;;;10.48;100.00
67840;BME280;54636;51.684;5.142;2023-02-18T01:52:52;102219.50;;;10.58;100.00
67840;BME280;54636;51.684;5.142;2023-02-18T01:55:17;102220.25;;;10.59;100.00
67840;BME280;54636;51.684;5.142;2023-02-18T01:57:43;102222.09;;;10.62;100.00
67840;BME280;54636;51.684;5.142;2023-02-18T02:00:11;102209.84;;;10.57;100.00
67840;BME280;54636;51.684;5.142;2023-02-18T02:02:41;102213.34;;;10.67;100.00
67840;BME280;54636;51.684;5.142;2023-02-18T02:05:06;102203.78;;;10.53;100.00
67840;BME280;54636;51.684;5.142;2023-02-18T02:07:32;102215.00;;;10.64;100.00
67840;BME280;54636;51.684;5.142;2023-02-18T02:09:58;102201.88;;;10.63;100.00
67840;BME280;54636;51.684;5.142;2023-02-18T02:15:43;102186.00;;;10.61;100.00
67840;BME280;54636;51.684;5.142;2023-02-18T02:23:53;102178.91;;;10.64;100.00
67840;BME280;54636;51.684;5.142;2023-02-18T02:35:23;102159.50;;;10.74;100.00
67840;BME280;54636;51.684;5.142;2023-02-18T02:38:00;102135.56;;;10.51;100.00
67840;BME280;54636;51.684;5.142;2023-02-18T02:51:17;102124.38;;;10.40;100.00
67840;BME280;54636;51.684;5.142;2023-02-18T02:53:44;102124.94;;;10.35;100.00
67840;BME280;54636;51.684;5.142;2023-02-18T02:56:14;102116.19;;;10.31;100.00
67840;BME280;54636;51.684;5.142;2023-02-18T02:58:40;102116.63;;;10.29;100.00
67840;BME280;54636;51.684;5.142;2023-02-18T03:09:09;102090.66;;;10.28;100.00
67840;BME280;54636;51.684;5.142;2023-02-18T03:11:43;102076.97;;;10.10;100.00
67840;BME280;54636;51.684;5.142;2023-02-18T03:14:20;102070.84;;;10.18;100.00
67840;BME280;54636;51.684;5.142;2023-02-18T03:21:56;102053.00;;;10.08;100.00
67840;BME280;54636;51.684;5.142;2023-02-18T03:26:54;102045.75;;;10.05;100.00
67840;BME280;54636;51.684;5.142;2023-02-18T03:29:21;102054.69;;;10.15;100.00
67840;BME280;54636;51.684;5.142;2023-02-18T03:31:51;102041.53;;;10.04;100.00
67840;BME280;54636;51.684;5.142;2023-02-18T03:34:24;102047.72;;;10.05;100.00
67840;BME280;54636;51.684;5.142;2023-02-18T03:36:51;102042.41;;;10.01;100.00
67840;BME280;54636;51.684;5.142;2023-02-18T03:39:19;102048.59;;;10.02;100.00
67840;BME280;54636;51.684;5.142;2023-02-18T03:41:47;102027.91;;;9.95;100.00
67840;BME280;54636;51.684;5.142;2023-02-18T03:44:13;102038.06;;;10.04;100.00
67840;BME280;54636;51.684;5.142;2023-02-18T03:46:41;102035.34;;;10.04;100.00
67840;BME280;54636;51.684;5.142;2023-02-18T03:49:11;102026.13;;;10.01;100.00
67840;BME280;54636;51.684;5.142;2023-02-18T03:51:37;102001.78;;;9.88;100.00
67840;BME280;54636;51.684;5.142;2023-02-18T03:54:03;102025.38;;;10.01;100.00
67840;BME280;54636;51.684;5.142;2023-02-18T03:56:28;102028.53;;;9.99;100.00
67840;BME280;54636;51.684;5.142;2023-02-18T03:58:54;102018.59;;;10.05;100.00
67840;BME280;54636;51.684;5.142;2023-02-18T04:01:19;102011.53;;;10.08;100.00
67840;BME280;54636;51.684;5.142;2023-02-18T04:03:45;101999.38;;;9.90;100.00
67840;BME280;54636;51.684;5.142;2023-02-18T04:06:10;102002.59;;;9.98;100.00
67840;BME280;54636;51.684;5.142;2023-02-18T04:08:35;101988.97;;;9.89;100.00
67840;BME280;54636;51.684;5.142;2023-02-18T04:11:01;101983.25;;;9.87;100.00
67840;BME280;54636;51.684;5.142;2023-02-18T04:13:27;101982.34;;;9.90;100.00
67840;BME280;54636;51.684;5.142;2023-02-18T04:15:52;101998.06;;;9.95;100.00
67840;BME280;54636;51.684;5.142;2023-02-18T04:18:18;101989.50;;;10.06;100.00
67840;BME280;54636;51.684;5.142;2023-02-18T04:20:43;101978.00;;;9.93;100.00
67840;BME280;54636;51.684;5.142;2023-02-18T04:23:10;101970.25;;;9.82;100.00
67840;BME280;54636;51.684;5.142;2023-02-18T04:25:36;101986.75;;;9.97;100.00
67840;BME280;54636;51.684;5.142;2023-02-18T04:28:01;101974.47;;;9.83;100.00
67840;BME280;54636;51.684;5.142;2023-02-18T04:30:26;101978.75;;;9.93;100.00
67840;BME280;54636;51.684;5.142;2023-02-18T04:32:52;101987.06;;;9.99;100.00
67840;BME280;54636;51.684;5.142;2023-02-18T04:35:18;101991.88;;;9.95;100.00
67840;BME280;54636;51.684;5.142;2023-02-18T04:37:43;101999.25;;;9.94;100.00
67840;BME280;54636;51.684;5.142;2023-02-18T04:40:09;101995.91;;;9.90;100.00
67840;BME280;54636;51.684;5.142;2023-02-18T04:42:35;101986.28;;;9.89;100.00
67840;BME280;54636;51.684;5.142;2023-02-18T04:45:00;101997.00;;;9.93;100.00
67840;BME280;54636;51.684;5.142;2023-02-18T04:47:25;101986.72;;;9.87;100.00
67840;BME280;54636;51.684;5.142;2023-02-18T04:49:51;101986.56;;;9.91;100.00
67840;BME280;54636;51.684;5.142;2023-02-18T04:52:17;101979.78;;;9.86;100.00
67840;BME280;54636;51.684;5.142;2023-02-18T04:54:43;101956.53;;;9.76;100.00
67840;BME280;54636;51.684;5.142;2023-02-18T04:57:08;101957.44;;;9.73;100.00
67840;BME280;54636;51.684;5.142;2023-02-18T04:59:33;101966.97;;;9.87;100.00
67840;BME280;54636;51.684;5.142;2023-02-18T05:01:59;101968.16;;;9.86;100.00
67840;BME280;54636;51.684;5.142;2023-02-18T05:04:24;101972.84;;;9.85;100.00
67840;BME280;54636;51.684;5.142;2023-02-18T05:06:49;101967.09;;;9.83;100.00
67840;BME280;54636;51.684;5.142;2023-02-18T05:09:15;101963.31;;;9.81;100.00
67840;BME280;54636;51.684;5.142;2023-02-18T05:11:42;101946.88;;;9.75;100.00
67840;BME280;54636;51.684;5.142;2023-02-18T05:14:07;101941.31;;;9.79;100.00
67840;BME280;54636;51.684;5.142;2023-02-18T05:16:33;101944.06;;;9.88;100.00
67840;BME280;54636;51.684;5.142;2023-02-18T05:18:59;101942.22;;;9.85;100.00
67840;BME280;54636;51.684;5.142;2023-02-18T05:21:24;101946.72;;;9.79;100.00
67840;BME280;54636;51.684;5.142;2023-02-18T05:23:49;101955.34;;;9.86;100.00
67840;BME280;54636;51.684;5.142;2023-02-18T05:26:15;101959.56;;;9.87;100.00
67840;BME280;54636;51.684;5.142;2023-02-18T05:28:40;101959.09;;;9.80;100.00
67840;BME280;54636;51.684;5.142;2023-02-18T05:31:06;101967.53;;;9.82;100.00
67840;BME280;54636;51.684;5.142;2023-02-18T05:33:31;101958.78;;;9.78;100.00
67840;BME280;54636;51.684;5.142;2023-02-18T05:35:57;101962.69;;;9.77;100.00
67840;BME280;54636;51.684;5.142;2023-02-18T05:38:22;101930.09;;;9.58;100.00
67840;BME280;54636;51.684;5.142;2023-02-18T05:40:47;101942.38;;;9.72;100.00
67840;BME280;54636;51.684;5.142;2023-02-18T05:43:13;101946.41;;;9.77;100.00
67840;BME280;54636;51.684;5.142;2023-02-18T05:45:39;101938.28;;;9.77;100.00
67840;BME280;54636;51.684;5.142;2023-02-18T05:48:04;101938.16;;;9.80;100.00
67840;BME280;54636;51.684;5.142;2023-02-18T05:50:30;101900.56;;;9.61;100.00
67840;BME280;54636;51.684;5.142;2023-02-18T05:52:55;101920.94;;;9.65;100.00
67840;BME280;54636;51.684;5.142;2023-02-18T05:55:21;101925.31;;;9.72;100.00
67840;BME280;54636;51.684;5.142;2023-02-18T05:57:46;101926.53;;;9.71;100.00
67840;BME280;54636;51.684;5.142;2023-02-18T06:00:12;101916.84;;;9.61;100.00
67840;BME280;54636;51.684;5.142;2023-02-18T06:02:37;101919.91;;;9.72;100.00
67840;BME280;54636;51.684;5.142;2023-02-18T06:05:03;101900.84;;;9.53;100.00
67840;BME280;54636;51.684;5.142;2023-02-18T06:07:29;101920.19;;;9.65;100.00
67840;BME280;54636;51.684;5.142;2023-02-18T06:09:54;101905.41;;;9.66;100.00
67840;BME280;54636;51.684;5.142;2023-02-18T06:12:20;101910.84;;;9.66;100.00
67840;BME280;54636;51.684;5.142;2023-02-18T06:14:45;101909.78;;;9.63;100.00
67840;BME280;54636;51.684;5.142;2023-02-18T06:17:12;101908.66;;;9.51;100.00
67840;BME280;54636;51.684;5.142;2023-02-18T06:19:38;101895.31;;;9.66;100.00
67840;BME280;54636;51.684;5.142;2023-02-18T06:22:04;101902.03;;;9.52;100.00
67840;BME280;54636;51.684;5.142;2023-02-18T06:24:29;101917.28;;;9.59;100.00
67840;BME280;54636;51.684;5.142;2023-02-18T06:26:55;101919.41;;;9.64;100.00
67840;BME280;54636;51.684;5.142;2023-02-18T06:29:20;101891.59;;;9.42;100.00
67840;BME280;54636;51.684;5.142;2023-02-18T06:31:46;101922.72;;;9.59;100.00
67840;BME280;54636;51.684;5.142;2023-02-18T06:34:11;101916.09;;;9.60;100.00
67840;BME280;54636;51.684;5.142;2023-02-18T06:36:37;101906.97;;;9.45;100.00
67840;BME280;54636;51.684;5.142;2023-02-18T06:39:03;101901.91;;;9.56;100.00
67840;BME280;54636;51.684;5.142;2023-02-18T06:41:29;101893.13;;;9.43;100.00
67840;BME280;54636;51.684;5.142;2023-02-18T06:43:54;101903.16;;;9.64;100.00
67840;BME280;54636;51.684;5.142;2023-02-18T06:46:20;101901.16;;;9.55;100.00
67840;BME280;54636;51.684;5.142;2023-02-18T06:48:45;101886.78;;;9.46;100.00
67840;BME280;54636;51.684;5.142;2023-02-18T06:51:10;101884.53;;;9.44;100.00
67840;BME280;54636;51.684;5.142;2023-02-18T06:53:36;101902.31;;;9.45;100.00
67840;BME280;54636;51.684;5.142;2023-02-18T06:56:01;101930.69;;;9.53;100.00
67840;BME280;54636;51.684;5.142;2023-02-18T06:58:27;101875.81;;;9.18;100.00
67840;BME280;54636;51.684;5.142;2023-02-18T07:00:52;101917.38;;;9.46;100.00
67840;BME280;54636;51.684;5.142;2023-02-18T07:03:18;101922.81;;;9.46;100.00
67840;BME280;54636;51.684;5.142;2023-02-18T07:05:43;101919.03;;;9.44;100.00
67840;BME280;54636;51.684;5.142;2023-02-18T07:08:09;101911.47;;;9.39;100.00
67840;BME280;54636;51.684;5.142;2023-02-18T07:10:35;101917.34;;;9.37;100.00
67840;BME280;54636;51.684;5.142;2023-02-18T07:13:00;101912.84;;;9.43;100.00
67840;BME280;54636;51.684;5.142;2023-02-18T07:15:25;101936.94;;;9.41;100.00
67840;BME280;54636;51.684;5.142;2023-02-18T07:17:52;101911.56;;;9.26;100.00
67840;BME280;54636;51.684;5.142;2023-02-18T07:20:19;101931.06;;;9.43;100.00
67840;BME280;54636;51.684;5.142;2023-02-18T07:22:45;101897.75;;;9.11;100.00
67840;BME280;54636;51.684;5.142;2023-02-18T07:25:11;101942.06;;;9.39;100.00
67840;BME280;54636;51.684;5.142;2023-02-18T07:27:36;101931.59;;;9.29;100.00
67840;BME280;54636;51.684;5.142;2023-02-18T07:30:02;101948.75;;;9.25;100.00
67840;BME280;54636;51.684;5.142;2023-02-18T07:32:28;101939.88;;;9.25;100.00
67840;BME280;54636;51.684;5.142;2023-02-18T07:34:53;101945.34;;;9.34;100.00
67840;BME280;54636;51.684;5.142;2023-02-18T07:37:19;101947.47;;;9.39;100.00
67840;BME280;54636;51.684;5.142;2023-02-18T07:39:44;101913.78;;;9.18;100.00
67840;BME280;54636;51.684;5.142;2023-02-18T07:42:11;101928.75;;;9.32;100.00
67840;BME280;54636;51.684;5.142;2023-02-18T07:44:37;101924.16;;;9.20;100.00
67840;BME280;54636;51.684;5.142;2023-02-18T07:47:04;101911.63;;;9.13;100.00
67840;BME280;54636;51.684;5.142;2023-02-18T07:49:30;101935.06;;;9.29;100.00
67840;BME280;54636;51.684;5.142;2023-02-18T07:51:56;101905.31;;;9.07;100.00
67840;BME280;54636;51.684;5.142;2023-02-18T07:54:22;101913.00;;;9.18;100.00
67840;BME280;54636;51.684;5.142;2023-02-18T07:56:47;101937.53;;;9.36;100.00
67840;BME280;54636;51.684;5.142;2023-02-18T07:59:13;101926.00;;;9.23;100.00
67840;BME280;54636;51.684;5.142;2023-02-18T08:01:39;101934.69;;;9.40;100.00
67840;BME280;54636;51.684;5.142;2023-02-18T08:04:05;101931.34;;;9.36;100.00
67840;BME280;54636;51.684;5.142;2023-02-18T08:06:34;101921.81;;;9.31;100.00
67840;BME280;54636;51.684;5.142;2023-02-18T08:09:00;101925.06;;;9.48;100.00
67840;BME280;54636;51.684;5.142;2023-02-18T08:11:26;101934.09;;;9.45;100.00
67840;BME280;54636;51.684;5.142;2023-02-18T08:13:53;101920.19;;;9.34;100.00
67840;BME280;54636;51.684;5.142;2023-02-18T08:16:20;101908.41;;;9.28;100.00
67840;BME280;54636;51.684;5.142;2023-02-18T08:18:46;101932.78;;;9.49;100.00
67840;BME280;54636;51.684;5.142;2023-02-18T08:21:15;101931.38;;;9.45;100.00
67840;BME280;54636;51.684;5.142;2023-02-18T08:23:41;101928.50;;;9.39;100.00
67840;BME280;54636;51.684;5.142;2023-02-18T08:26:06;101912.22;;;9.39;100.00
67840;BME280;54636;51.684;5.142;2023-02-18T08:28:32;101932.91;;;9.46;100.00
67840;BME280;54636;51.684;5.142;2023-02-18T08:30:58;101942.09;;;9.48;100.00
67840;BME280;54636;51.684;5.142;2023-02-18T08:33:24;101929.75;;;9.47;100.00
67840;BME280;54636;51.684;5.142;2023-02-18T08:35:51;101938.50;;;9.51;100.00
67840;BME280;54636;51.684;5.142;2023-02-18T08:38:17;101934.59;;;9.52;100.00
67840;BME280;54636;51.684;5.142;2023-02-18T08:40:42;101921.81;;;9.31;100.00
67840;BME280;54636;51.684;5.142;2023-02-18T08:43:08;101940.53;;;9.38;100.00
67840;BME280;54636;51.684;5.142;2023-02-18T08:45:36;101928.75;;;9.32;100.00
67840;BME280;54636;51.684;5.142;2023-02-18T08:48:03;101948.53;;;9.42;100.00
67840;BME280;54636;51.684;5.142;2023-02-18T08:50:28;101948.84;;;9.44;100.00
67840;BME280;54636;51.684;5.142;2023-02-18T08:52:54;101938.94;;;9.50;100.00
67840;BME280;54636;51.684;5.142;2023-02-18T08:55:20;101939.66;;;9.41;100.00
67840;BME280;54636;51.684;5.142;2023-02-18T08:57:48;101931.66;;;9.38;100.00
67840;BME280;54636;51.684;5.142;2023-02-18T09:00:15;101931.78;;;9.34;100.00
67840;BME280;54636;51.684;5.142;2023-02-18T09:02:41;101930.13;;;9.37;100.00
67840;BME280;54636;51.684;5.142;2023-02-18T09:05:07;101946.00;;;9.47;100.00
67840;BME280;54636;51.684;5.142;2023-02-18T09:07:34;101930.91;;;9.37;100.00
67840;BME280;54636;51.684;5.142;2023-02-18T09:09:59;101922.91;;;9.34;100.00
67840;BME280;54636;51.684;5.142;2023-02-18T09:12:25;101926.22;;;9.38;100.00
67840;BME280;54636;51.684;5.142;2023-02-18T09:14:50;101949.03;;;9.49;100.00
67840;BME280;54636;51.684;5.142;2023-02-18T09:17:16;101933.91;;;9.39;100.00
67840;BME280;54636;51.684;5.142;2023-02-18T09:19:41;101956.09;;;9.47;100.00
67840;BME280;54636;51.684;5.142;2023-02-18T09:22:06;101951.47;;;9.56;100.00
67840;BME280;54636;51.684;5.142;2023-02-18T09:24:39;101953.47;;;9.65;100.00
67840;BME280;54636;51.684;5.142;2023-02-18T09:27:05;101938.50;;;9.51;100.00
67840;BME280;54636;51.684;5.142;2023-02-18T09:29:31;101961.13;;;9.57;100.00
67840;BME280;54636;51.684;5.142;2023-02-18T09:32:00;101956.06;;;9.78;100.00
67840;BME280;54636;51.684;5.142;2023-02-18T09:34:26;101942.31;;;9.63;100.00
67840;BME280;54636;51.684;5.142;2023-02-18T09:36:52;101953.97;;;9.82;100.00
67840;BME280;54636;51.684;5.142;2023-02-18T09:39:17;101961.19;;;9.76;100.00
67840;BME280;54636;51.684;5.142;2023-02-18T09:41:49;101977.94;;;9.83;100.00
67840;BME280;54636;51.684;5.142;2023-02-18T09:44:31;101967.31;;;9.98;100.00
67840;BME280;54636;51.684;5.142;2023-02-18T09:47:05;101968.91;;;9.86;100.00
67840;BME280;54636;51.684;5.142;2023-02-18T09:49:39;101940.72;;;9.75;100.00
67840;BME280;54636;51.684;5.142;2023-02-18T09:52:13;101967.59;;;9.91;100.00
67840;BME280;54636;51.684;5.142;2023-02-18T09:54:40;101958.81;;;9.87;100.00
67840;BME280;54636;51.684;5.142;2023-02-18T09:57:07;101963.25;;;10.03;100.00
67840;BME280;54636;51.684;5.142;2023-02-18T09:59:40;101971.41;;;10.03;100.00
67840;BME280;54636;51.684;5.142;2023-02-18T10:02:13;101957.63;;;9.88;100.00
67840;BME280;54636;51.684;5.142;2023-02-18T10:04:43;101970.50;;;10.06;100.00
67840;BME280;54636;51.684;5.142;2023-02-18T10:07:28;101957.06;;;10.02;100.00
67840;BME280;54636;51.684;5.142;2023-02-18T10:09:56;101949.66;;;9.94;100.00
67840;BME280;54636;51.684;5.142;2023-02-18T10:12:25;101985.91;;;10.18;100.00
67840;BME280;54636;51.684;5.142;2023-02-18T10:14:55;101982.44;;;10.17;100.00
67840;BME280;54636;51.684;5.142;2023-02-18T10:17:23;101985.06;;;10.21;100.00
67840;BME280;54636;51.684;5.142;2023-02-18T10:19:53;101989.59;;;10.24;100.00
67840;BME280;54636;51.684;5.142;2023-02-18T10:22:21;101988.31;;;10.16;100.00
67840;BME280;54636;51.684;5.142;2023-02-18T10:24:57;101987.94;;;10.27;100.00
67840;BME280;54636;51.684;5.142;2023-02-18T10:29:49;102003.31;;;10.20;100.00
67840;BME280;54636;51.684;5.142;2023-02-18T10:32:53;102010.84;;;10.26;100.00
67840;BME280;54636;51.684;5.142;2023-02-18T10:35:46;101996.84;;;10.36;100.00
67840;BME280;54636;51.684;5.142;2023-02-18T10:38:28;102010.56;;;10.23;100.00
67840;BME280;54636;51.684;5.142;2023-02-18T10:41:09;102014.94;;;10.30;100.00
67840;BME280;54636;51.684;5.142;2023-02-18T10:46:31;101998.03;;;10.26;100.00
67840;BME280;54636;51.684;5.142;2023-02-18T10:51:45;102001.53;;;10.54;100.00
67840;BME280;54636;51.684;5.142;2023-02-18T10:54:13;102001.66;;;10.41;100.00
67840;BME280;54636;51.684;5.142;2023-02-18T10:56:50;102013.44;;;10.47;100.00
67840;BME280;54636;51.684;5.142;2023-02-18T10:59:20;102019.97;;;10.59;100.00
67840;BME280;54636;51.684;5.142;2023-02-18T11:01:54;102018.31;;;10.62;100.00
67840;BME280;54636;51.684;5.142;2023-02-18T11:04:25;102018.63;;;10.64;100.00
67840;BME280;54636;51.684;5.142;2023-02-18T11:06:53;102031.44;;;10.63;100.00
67840;BME280;54636;51.684;5.142;2023-02-18T11:09:33;102036.59;;;10.70;100.00
67840;BME280;54636;51.684;5.142;2023-02-18T11:12:29;102021.94;;;10.77;100.00
67840;BME280;54636;51.684;5.142;2023-02-18T11:17:43;102033.13;;;10.79;100.00
67840;BME280;54636;51.684;5.142;2023-02-18T11:22:58;102033.56;;;10.77;100.00
67840;BME280;54636;51.684;5.142;2023-02-18T11:25:30;102000.81;;;10.63;100.00
67840;BME280;54636;51.684;5.142;2023-02-18T11:30:38;102002.63;;;10.84;100.00
67840;BME280;54636;51.684;5.142;2023-02-18T11:33:15;102022.56;;;10.81;100.00
67840;BME280;54636;51.684;5.142;2023-02-18T11:35:48;102030.41;;;10.88;100.00
67840;BME280;54636;51.684;5.142;2023-02-18T11:38:26;102029.34;;;10.85;100.00
67840;BME280;54636;51.684;5.142;2023-02-18T11:41:05;102020.59;;;10.91;100.00
67840;BME280;54636;51.684;5.142;2023-02-18T11:43:32;102008.66;;;10.97;100.00
67840;BME280;54636;51.684;5.142;2023-02-18T11:46:14;102001.53;;;11.09;100.00
67840;BME280;54636;51.684;5.142;2023-02-18T11:48:40;102024.91;;;11.43;100.00
67840;BME280;54636;51.684;5.142;2023-02-18T11:51:15;102013.53;;;11.63;100.00
67840;BME280;54636;51.684;5.142;2023-02-18T11:53:53;102020.16;;;11.80;100.00
67840;BME280;54636;51.684;5.142;2023-02-18T11:56:19;102018.31;;;11.86;100.00
67840;BME280;54636;51.684;5.142;2023-02-18T11:58:46;102029.59;;;12.03;100.00
67840;BME280;54636;51.684;5.142;2023-02-18T12:04:01;102011.28;;;12.03;100.00
67840;BME280;54636;51.684;5.142;2023-02-18T12:09:24;102020.38;;;12.00;100.00
67840;BME280;54636;51.684;5.142;2023-02-18T12:12:04;102015.97;;;12.03;100.00
67840;BME280;54636;51.684;5.142;2023-02-18T12:14:31;102008.28;;;12.01;100.00
67840;BME280;54636;51.684;5.142;2023-02-18T12:17:25;102009.66;;;11.97;100.00
67840;BME280;54636;51.684;5.142;2023-02-18T12:36:37;102002.22;;;11.97;100.00
67840;BME280;54636;51.684;5.142;2023-02-18T12:39:24;102001.47;;;11.97;100.00
67840;BME280;54636;51.684;5.142;2023-02-18T12:42:16;102009.66;;;11.97;100.00
67840;BME280;54636;51.684;5.142;2023-02-18T12:47:29;101997.38;;;12.01;100.00
67840;BME280;54636;51.684;5.142;2023-02-18T12:50:08;102007.63;;;12.06;100.00
67840;BME280;54636;51.684;5.142;2023-02-18T12:59:10;102000.94;;;12.16;100.00
67840;BME280;54636;51.684;5.142;2023-02-18T13:01:47;102006.56;;;12.13;100.00
67840;BME280;54636;51.684;5.142;2023-02-18T13:04:23;102003.94;;;12.18;100.00
67840;BME280;54636;51.684;5.142;2023-02-18T13:07:07;102007.88;;;12.17;100.00
67840;BME280;54636;51.684;5.142;2023-02-18T13:12:54;102008.31;;;12.25;100.00
67840;BME280;54636;51.684;5.142;2023-02-18T13:18:00;101995.84;;;12.33;100.00
67840;BME280;54636;51.684;5.142;2023-02-18T13:20:44;101978.06;;;12.23;100.00
67840;BME280;54636;51.684;5.142;2023-02-18T13:23:31;101997.38;;;12.49;100.00
67840;BME280;54636;51.684;5.142;2023-02-18T13:26:03;101995.25;;;12.53;99.82
67840;BME280;54636;51.684;5.142;2023-02-18T13:34:56;102010.97;;;12.58;99.69
67840;BME280;54636;51.684;5.142;2023-02-18T13:39:52;101999.00;;;12.56;98.60
67840;BME280;54636;51.684;5.142;2023-02-18T13:42:39;102006.59;;;12.51;99.33
67840;BME280;54636;51.684;5.142;2023-02-18T13:45:26;101998.94;;;12.41;100.00
67840;BME280;54636;51.684;5.142;2023-02-18T13:47:53;101996.63;;;12.48;99.55
67840;BME280;54636;51.684;5.142;2023-02-18T13:50:26;101989.81;;;12.29;99.84
67840;BME280;54636;51.684;5.142;2023-02-18T13:58:20;102000.88;;;12.26;100.00
67840;BME280;54636;51.684;5.142;2023-02-18T14:00:55;102009.66;;;12.30;100.00
67840;BME280;54636;51.684;5.142;2023-02-18T14:08:39;102014.03;;;12.51;99.61
67840;BME280;54636;51.684;5.142;2023-02-18T14:13:41;102013.34;;;12.65;99.57
67840;BME280;54636;51.684;5.142;2023-02-18T14:16:08;102017.38;;;12.70;98.17
67840;BME280;54636;51.684;5.142;2023-02-18T14:26:10;102006.31;;;12.73;98.19
67840;BME280;54636;51.684;5.142;2023-02-18T14:28:51;102009.50;;;12.72;98.27
67840;BME280;54636;51.684;5.142;2023-02-18T14:31:33;102005.44;;;12.67;98.65
67840;BME280;54636;51.684;5.142;2023-02-18T14:40:27;102021.22;;;12.63;98.96
67840;BME280;54636;51.684;5.142;2023-02-18T14:45:52;101996.34;;;12.46;99.04
67840;BME280;54636;51.684;5.142;2023-02-18T14:48:40;102019.78;;;12.53;99.37
67840;BME280;54636;51.684;5.142;2023-02-18T14:51:07;102020.53;;;12.53;98.15
67840;BME280;54636;51.684;5.142;2023-02-18T14:53:39;102024.78;;;12.31;100.00
67840;BME280;54636;51.684;5.142;2023-02-18T14:56:08;102015.91;;;12.21;100.00
67840;BME280;54636;51.684;5.142;2023-02-18T14:58:37;102024.78;;;12.31;100.00
67840;BME280;54636;51.684;5.142;2023-02-18T15:01:14;102003.81;;;12.13;100.00
67840;BME280;54636;51.684;5.142;2023-02-18T15:03:40;102023.72;;;12.28;100.00
67840;BME280;54636;51.684;5.142;2023-02-18T15:08:46;102012.53;;;12.26;99.75
67840;BME280;54636;51.684;5.142;2023-02-18T15:11:12;102020.59;;;12.20;100.00
67840;BME280;54636;51.684;5.142;2023-02-18T15:13:43;101982.63;;;11.84;100.00